createdAt,value
2022-09-22T00:00:53.393Z,0.00
2022-09-22T00:01:53.329Z,0.00
2022-09-22T00:02:53.325Z,0.00
2022-09-22T00:03:53.273Z,0.00
2022-09-22T00:04:53.253Z,0.00
2022-09-22T00:05:53.240Z,0.00
2022-09-22T00:06:53.257Z,0.00
2022-09-22T00:07:53.204Z,0.00
2022-09-22T00:08:53.178Z,0.00
2022-09-22T00:09:53.156Z,0.00
2022-09-22T00:10:53.138Z,0.00
2022-09-22T00:11:53.119Z,0.00
2022-09-22T00:12:53.105Z,0.00
2022-09-22T00:13:53.080Z,0.00
2022-09-22T00:14:53.068Z,0.00
2022-09-22T00:15:53.093Z,0.00
2022-09-22T00:16:53.025Z,0.00
2022-09-22T00:17:53.003Z,0.00
2022-09-22T00:18:52.991Z,0.00
2022-09-22T00:19:52.967Z,0.00
2022-09-22T00:20:52.947Z,0.00
2022-09-22T00:21:52.936Z,0.00
2022-09-22T00:22:52.909Z,0.00
2022-09-22T00:23:52.889Z,0.00
2022-09-22T00:24:52.871Z,0.00
2022-09-22T00:25:52.852Z,0.00
2022-09-22T00:26:52.833Z,0.00
2022-09-22T00:27:52.815Z,0.00
2022-09-22T00:28:52.802Z,0.00
2022-09-22T00:29:52.772Z,0.00
2022-09-22T00:30:52.756Z,0.00
2022-09-22T00:31:52.775Z,0.00
2022-09-22T00:32:52.740Z,0.00
2022-09-22T00:33:52.702Z,0.00
2022-09-22T00:34:52.680Z,0.00
2022-09-22T00:35:52.658Z,0.00
2022-09-22T00:36:52.649Z,0.00
2022-09-22T00:37:52.628Z,0.00
2022-09-22T00:38:52.606Z,0.00
2022-09-22T00:39:52.584Z,0.00
2022-09-22T00:40:52.562Z,0.00
2022-09-22T00:41:52.541Z,0.00
2022-09-22T00:42:52.539Z,0.00
2022-09-22T00:43:52.510Z,0.00
2022-09-22T00:44:52.487Z,0.00
2022-09-22T00:45:52.469Z,0.00
2022-09-22T00:46:52.529Z,0.00
2022-09-22T00:47:52.432Z,0.00
2022-09-22T00:48:52.411Z,0.00
2022-09-22T00:49:52.389Z,0.00
2022-09-22T00:50:52.374Z,0.00
2022-09-22T00:51:52.350Z,0.00
2022-09-22T00:52:52.336Z,0.00
2022-09-22T00:53:52.312Z,0.00
2022-09-22T00:54:52.295Z,0.00
2022-09-22T00:55:52.279Z,0.00
2022-09-22T00:56:52.277Z,0.00
2022-09-22T00:57:52.239Z,0.00
2022-09-22T00:58:52.217Z,0.00
2022-09-22T00:59:52.197Z,0.00
2022-09-22T01:00:52.249Z,0.00
2022-09-22T01:01:52.208Z,0.00
2022-09-22T01:02:52.145Z,0.00
2022-09-22T01:03:52.120Z,0.00
2022-09-22T01:04:52.111Z,0.00
2022-09-22T01:05:52.083Z,0.00
2022-09-22T01:06:52.062Z,0.00
2022-09-22T01:07:52.050Z,0.00
2022-09-22T01:08:52.024Z,0.00
2022-09-22T01:09:52.006Z,0.00
2022-09-22T01:10:51.991Z,0.00
2022-09-22T01:11:51.966Z,0.00
2022-09-22T01:12:51.947Z,0.00
2022-09-22T01:13:51.926Z,0.00
2022-09-22T01:14:51.915Z,0.00
2022-09-22T01:15:51.910Z,0.00
2022-09-22T01:16:51.874Z,0.00
2022-09-22T01:17:51.849Z,0.00
2022-09-22T01:18:51.838Z,0.00
2022-09-22T01:19:51.811Z,0.00
2022-09-22T01:20:51.791Z,0.00
2022-09-22T01:21:51.778Z,0.00
2022-09-22T01:22:51.761Z,0.00
2022-09-22T01:23:51.734Z,0.00
2022-09-22T01:24:51.715Z,0.00
2022-09-22T01:25:51.699Z,0.00
2022-09-22T01:26:51.677Z,0.00
2022-09-22T01:27:51.658Z,0.00
2022-09-22T01:28:51.639Z,0.00
2022-09-22T01:29:51.617Z,0.00
2022-09-22T01:30:51.651Z,0.00
2022-09-22T01:31:51.579Z,0.00
2022-09-22T01:32:51.571Z,0.00
2022-09-22T01:33:51.539Z,0.00
2022-09-22T01:34:51.521Z,0.00
2022-09-22T01:35:51.502Z,0.00
2022-09-22T01:36:51.481Z,0.00
2022-09-22T01:37:51.483Z,0.00
2022-09-22T01:38:51.443Z,0.00
2022-09-22T01:39:51.423Z,0.00
2022-09-22T01:40:51.404Z,0.00
2022-09-22T01:41:51.384Z,0.00
2022-09-22T01:42:51.368Z,0.00
2022-09-22T01:43:51.349Z,0.00
2022-09-22T01:44:51.341Z,0.00
2022-09-22T01:45:51.307Z,0.00
2022-09-22T01:46:51.372Z,0.00
2022-09-22T01:47:51.267Z,0.00
2022-09-22T01:48:51.250Z,0.00
2022-09-22T01:49:51.238Z,0.00
2022-09-22T01:50:51.213Z,0.00
2022-09-22T01:51:51.199Z,0.00
2022-09-22T01:52:51.175Z,0.00
2022-09-22T01:53:51.151Z,0.00
2022-09-22T01:54:51.132Z,0.00
2022-09-22T01:55:51.113Z,0.00
2022-09-22T01:56:51.102Z,0.00
2022-09-22T01:57:51.078Z,0.00
2022-09-22T01:58:51.056Z,0.00
2022-09-22T01:59:51.034Z,0.00
2022-09-22T02:00:51.018Z,0.00
2022-09-22T02:01:51.127Z,0.00
2022-09-22T02:02:51.109Z,0.00
2022-09-22T02:03:50.959Z,0.00
2022-09-22T02:04:50.952Z,0.00
2022-09-22T02:05:50.919Z,0.00
2022-09-22T02:06:50.903Z,0.00
2022-09-22T02:07:50.882Z,0.00
2022-09-22T02:08:50.862Z,0.00
2022-09-22T02:09:50.839Z,0.00
2022-09-22T02:10:50.823Z,0.00
2022-09-22T02:11:50.808Z,0.00
2022-09-22T02:12:50.785Z,0.00
2022-09-22T02:13:50.767Z,0.00
2022-09-22T02:14:50.746Z,0.00
2022-09-22T02:15:50.815Z,0.00
2022-09-22T02:16:50.708Z,0.00
2022-09-22T02:17:50.693Z,0.00
2022-09-22T02:18:50.751Z,0.00
2022-09-22T02:19:50.678Z,0.00
2022-09-22T02:20:50.627Z,0.00
2022-09-22T02:21:50.607Z,0.00
2022-09-22T02:22:50.589Z,0.00
2022-09-22T02:23:50.568Z,0.00
2022-09-22T02:24:50.548Z,0.00
2022-09-22T02:25:50.536Z,0.00
2022-09-22T02:26:50.511Z,0.00
2022-09-22T02:27:50.491Z,0.00
2022-09-22T02:28:50.473Z,0.00
2022-09-22T02:29:50.458Z,0.00
2022-09-22T02:31:10.500Z,0.00
2022-09-22T02:31:50.458Z,0.00
2022-09-22T02:32:50.392Z,0.00
2022-09-22T02:33:50.373Z,0.00
2022-09-22T02:34:50.353Z,0.00
2022-09-22T02:35:50.336Z,0.00
2022-09-22T02:36:50.314Z,0.00
2022-09-22T02:37:50.296Z,0.00
2022-09-22T02:38:50.275Z,0.00
2022-09-22T02:39:50.257Z,0.00
2022-09-22T02:40:50.300Z,0.00
2022-09-22T02:41:50.217Z,0.00
2022-09-22T02:42:50.202Z,0.00
2022-09-22T02:43:50.183Z,0.00
2022-09-22T02:44:50.160Z,0.00
2022-09-22T02:45:50.188Z,0.00
2022-09-22T02:46:50.124Z,0.00
2022-09-22T02:47:50.102Z,0.00
2022-09-22T02:48:50.077Z,0.00
2022-09-22T02:49:50.060Z,0.00
2022-09-22T02:50:50.042Z,0.00
2022-09-22T02:51:50.023Z,0.00
2022-09-22T02:52:50.001Z,0.00
2022-09-22T02:53:49.982Z,0.00
2022-09-22T02:54:49.962Z,0.00
2022-09-22T02:55:49.943Z,0.00
2022-09-22T02:56:49.922Z,0.00
2022-09-22T02:57:49.903Z,0.00
2022-09-22T02:58:49.883Z,0.00
2022-09-22T02:59:49.868Z,0.00
2022-09-22T03:00:49.858Z,0.00
2022-09-22T03:01:49.995Z,0.00
2022-09-22T03:02:49.805Z,0.00
2022-09-22T03:03:49.786Z,0.00
2022-09-22T03:04:49.805Z,0.00
2022-09-22T03:05:49.749Z,0.00
2022-09-22T03:06:49.727Z,0.00
2022-09-22T03:07:49.712Z,0.00
2022-09-22T03:08:49.685Z,0.00
2022-09-22T03:09:49.670Z,0.00
2022-09-22T03:10:49.652Z,0.00
2022-09-22T03:11:49.630Z,0.00
2022-09-22T03:13:14.459Z,0.00
2022-09-22T03:13:49.591Z,0.00
2022-09-22T03:14:49.574Z,0.00
2022-09-22T03:15:49.561Z,0.00
2022-09-22T03:16:49.537Z,0.00
2022-09-22T03:17:49.519Z,0.00
2022-09-22T03:18:49.494Z,0.00
2022-09-22T03:19:49.472Z,0.00
2022-09-22T03:20:49.450Z,0.00
2022-09-22T03:21:49.436Z,0.00
2022-09-22T03:22:49.443Z,0.00
2022-09-22T03:23:49.397Z,0.00
2022-09-22T03:24:49.372Z,0.00
2022-09-22T03:25:49.353Z,0.00
2022-09-22T03:26:49.330Z,0.00
2022-09-22T03:27:49.317Z,0.00
2022-09-22T03:28:49.291Z,0.00
2022-09-22T03:29:49.275Z,0.00
2022-09-22T03:30:49.324Z,0.00
2022-09-22T03:31:49.234Z,0.00
2022-09-22T03:32:49.215Z,0.00
2022-09-22T03:33:52.591Z,0.00
2022-09-22T03:34:49.173Z,0.00
2022-09-22T03:35:49.155Z,0.00
2022-09-22T03:36:49.132Z,0.00
2022-09-22T03:37:49.115Z,0.00
2022-09-22T03:38:49.097Z,0.00
2022-09-22T03:39:49.078Z,0.00
2022-09-22T03:40:49.099Z,0.00
2022-09-22T03:41:49.036Z,0.00
2022-09-22T03:42:49.016Z,0.00
2022-09-22T03:43:49.004Z,0.00
2022-09-22T03:44:48.976Z,0.00
2022-09-22T03:45:49.017Z,0.00
2022-09-22T03:46:48.938Z,0.00
2022-09-22T03:47:48.918Z,0.00
2022-09-22T03:48:48.897Z,0.00
2022-09-22T03:49:48.880Z,0.00
2022-09-22T03:50:48.856Z,0.00
2022-09-22T03:51:48.838Z,0.00
2022-09-22T03:52:48.823Z,0.00
2022-09-22T03:53:48.799Z,0.00
2022-09-22T03:54:48.806Z,0.00
2022-09-22T03:55:48.758Z,0.00
2022-09-22T03:56:48.738Z,0.00
2022-09-22T03:57:48.719Z,0.00
2022-09-22T03:58:48.699Z,0.00
2022-09-22T03:59:48.685Z,0.00
2022-09-22T04:00:48.660Z,0.00
2022-09-22T04:01:48.703Z,0.00
2022-09-22T04:02:48.668Z,0.00
2022-09-22T04:03:48.604Z,0.00
2022-09-22T04:04:48.580Z,0.00
2022-09-22T04:05:48.562Z,0.00
2022-09-22T04:06:48.540Z,0.00
2022-09-22T04:07:48.522Z,0.00
2022-09-22T04:08:48.508Z,0.00
2022-09-22T04:09:48.485Z,0.00
2022-09-22T04:10:48.459Z,0.00
2022-09-22T04:11:48.445Z,0.00
2022-09-22T04:12:48.417Z,0.00
2022-09-22T04:13:48.399Z,0.00
2022-09-22T04:14:48.381Z,0.00
2022-09-22T04:15:48.361Z,0.00
2022-09-22T04:16:48.391Z,0.00
2022-09-22T04:17:48.321Z,0.00
2022-09-22T04:18:48.298Z,0.00
2022-09-22T04:19:48.287Z,0.00
2022-09-22T04:20:48.263Z,0.00
2022-09-22T04:21:50.147Z,0.00
2022-09-22T04:22:48.220Z,0.00
2022-09-22T04:23:48.208Z,0.00
2022-09-22T04:24:48.179Z,0.00
2022-09-22T04:25:48.166Z,0.00
2022-09-22T04:27:15.263Z,0.00
2022-09-22T04:27:48.120Z,0.00
2022-09-22T04:28:48.100Z,0.00
2022-09-22T04:29:48.082Z,0.00
2022-09-22T04:30:48.134Z,0.00
2022-09-22T04:31:48.042Z,0.00
2022-09-22T04:32:48.023Z,0.00
2022-09-22T04:33:48.003Z,0.00
2022-09-22T04:34:47.982Z,0.00
2022-09-22T04:35:47.961Z,0.00
2022-09-22T04:36:47.941Z,0.00
2022-09-22T04:37:47.922Z,0.00
2022-09-22T04:38:47.899Z,0.00
2022-09-22T04:39:47.881Z,0.00
2022-09-22T04:40:47.938Z,0.00
2022-09-22T04:41:47.841Z,0.00
2022-09-22T04:42:47.819Z,0.00
2022-09-22T04:43:47.802Z,0.00
2022-09-22T04:44:47.778Z,0.00
2022-09-22T04:45:47.782Z,0.00
2022-09-22T04:46:47.740Z,0.00
2022-09-22T04:47:47.726Z,0.00
2022-09-22T04:48:47.699Z,0.00
2022-09-22T04:49:47.681Z,0.00
2022-09-22T04:50:48.382Z,0.00
2022-09-22T04:51:47.640Z,0.00
2022-09-22T04:52:47.618Z,0.00
2022-09-22T04:53:47.601Z,0.00
2022-09-22T04:54:47.584Z,0.00
2022-09-22T04:55:47.561Z,0.00
2022-09-22T04:56:47.539Z,0.00
2022-09-22T04:57:47.523Z,0.00
2022-09-22T04:58:47.506Z,0.00
2022-09-22T04:59:47.500Z,0.00
2022-09-22T05:00:47.460Z,0.00
2022-09-22T05:01:47.465Z,0.00
2022-09-22T05:02:55.617Z,0.00
2022-09-22T05:04:51.861Z,0.00
2022-09-22T05:05:51.825Z,0.00
2022-09-22T05:07:57.262Z,0.00
2022-09-22T05:08:57.253Z,0.00
2022-09-22T05:11:02.678Z,0.00
2022-09-22T05:12:02.640Z,0.00
2022-09-22T05:13:57.003Z,0.00
2022-09-22T05:14:56.977Z,0.00
2022-09-22T05:17:01.417Z,0.00
2022-09-22T05:18:01.376Z,0.00
2022-09-22T05:19:01.358Z,0.00
2022-09-22T05:20:01.338Z,0.00
2022-09-22T05:21:01.319Z,0.00
2022-09-22T05:22:01.297Z,0.00
2022-09-22T05:23:01.274Z,0.00
2022-09-22T05:24:01.290Z,0.00
2022-09-22T05:25:01.239Z,0.00
2022-09-22T05:26:01.215Z,5.63
2022-09-22T05:27:01.195Z,5.63
2022-09-22T05:28:01.177Z,5.63
2022-09-22T05:29:01.162Z,5.63
2022-09-22T05:30:01.141Z,5.63
2022-09-22T05:31:01.115Z,5.63
2022-09-22T05:32:01.167Z,5.63
2022-09-22T05:33:01.077Z,5.63
2022-09-22T05:34:01.056Z,5.63
2022-09-22T05:35:01.034Z,5.63
2022-09-22T05:36:01.016Z,5.63
2022-09-22T05:37:00.998Z,5.63
2022-09-22T05:38:00.977Z,5.63
2022-09-22T05:39:00.954Z,5.63
2022-09-22T05:40:01.035Z,5.63
2022-09-22T05:41:00.916Z,5.63
2022-09-22T05:42:00.897Z,5.63
2022-09-22T05:43:00.877Z,5.63
2022-09-22T05:44:00.859Z,5.63
2022-09-22T05:45:00.833Z,5.63
2022-09-22T05:46:00.853Z,5.63
2022-09-22T05:47:00.793Z,11.25
2022-09-22T05:48:00.774Z,11.25
2022-09-22T05:49:00.755Z,11.25
2022-09-22T05:50:00.734Z,11.25
2022-09-22T05:51:00.715Z,11.25
2022-09-22T05:52:00.696Z,11.25
2022-09-22T05:53:00.677Z,11.25
2022-09-22T05:54:00.673Z,16.88
2022-09-22T05:55:00.634Z,16.88
2022-09-22T05:56:00.617Z,16.88
2022-09-22T05:57:00.595Z,16.88
2022-09-22T05:58:00.578Z,16.88
2022-09-22T05:59:00.555Z,16.88
2022-09-22T06:00:00.534Z,16.88
2022-09-22T06:01:00.598Z,22.50
2022-09-22T06:02:01.886Z,22.50
2022-09-22T06:03:00.513Z,22.50
2022-09-22T06:04:00.464Z,22.50
2022-09-22T06:05:00.444Z,22.50
2022-09-22T06:06:00.418Z,22.50
2022-09-22T06:07:00.402Z,22.50
2022-09-22T06:08:00.382Z,22.50
2022-09-22T06:09:00.451Z,28.13
2022-09-22T06:10:00.342Z,28.13
2022-09-22T06:11:00.322Z,28.13
2022-09-22T06:12:00.304Z,28.13
2022-09-22T06:13:00.279Z,28.13
2022-09-22T06:14:00.258Z,28.13
2022-09-22T06:15:00.246Z,28.13
2022-09-22T06:16:00.272Z,28.13
2022-09-22T06:17:00.210Z,28.13
2022-09-22T06:18:00.180Z,28.13
2022-09-22T06:19:00.165Z,28.13
2022-09-22T06:20:00.152Z,28.13
2022-09-22T06:21:00.122Z,28.13
2022-09-22T06:22:00.106Z,28.13
2022-09-22T06:23:00.098Z,28.13
2022-09-22T06:24:00.152Z,28.13
2022-09-22T06:25:00.047Z,28.13
2022-09-22T06:26:00.022Z,28.13
2022-09-22T06:27:00.006Z,28.13
2022-09-22T06:27:59.988Z,28.13
2022-09-22T06:28:59.968Z,28.13
2022-09-22T06:29:59.946Z,28.13
2022-09-22T06:30:59.930Z,28.13
2022-09-22T06:31:59.960Z,28.13
2022-09-22T06:32:59.891Z,28.13
2022-09-22T06:34:01.494Z,28.13
2022-09-22T06:34:59.855Z,33.75
2022-09-22T06:35:59.834Z,33.75
2022-09-22T06:36:59.814Z,33.75
2022-09-22T06:37:59.791Z,33.75
2022-09-22T06:38:59.813Z,33.75
2022-09-22T06:39:59.759Z,33.75
2022-09-22T06:40:59.804Z,33.75
2022-09-22T06:41:59.721Z,33.75
2022-09-22T06:42:59.700Z,33.75
2022-09-22T06:43:59.681Z,33.75
2022-09-22T06:44:59.668Z,33.75
2022-09-22T06:45:59.676Z,33.75
2022-09-22T06:46:59.623Z,33.75
2022-09-22T06:47:59.604Z,33.75
2022-09-22T06:48:59.595Z,33.75
2022-09-22T06:49:59.568Z,33.75
2022-09-22T06:50:59.551Z,33.75
2022-09-22T06:51:59.532Z,33.75
2022-09-22T06:52:59.513Z,33.75
2022-09-22T06:53:59.551Z,33.75
2022-09-22T06:54:59.477Z,33.75
2022-09-22T06:55:59.456Z,33.75
2022-09-22T06:56:59.438Z,33.75
2022-09-22T06:57:59.419Z,33.75
2022-09-22T06:59:18.273Z,33.75
2022-09-22T06:59:59.383Z,33.75
2022-09-22T07:00:59.483Z,33.75
2022-09-22T07:01:59.466Z,33.75
2022-09-22T07:02:59.336Z,39.38
2022-09-22T07:03:59.308Z,39.38
2022-09-22T07:04:59.291Z,39.38
2022-09-22T07:05:59.272Z,39.38
2022-09-22T07:06:59.254Z,39.38
2022-09-22T07:07:59.237Z,39.38
2022-09-22T07:08:59.302Z,39.38
2022-09-22T07:09:59.203Z,39.38
2022-09-22T07:10:59.185Z,45.00
2022-09-22T07:11:59.164Z,45.00
2022-09-22T07:12:59.155Z,45.00
2022-09-22T07:13:59.130Z,45.00
2022-09-22T07:14:59.111Z,50.63
2022-09-22T07:15:59.119Z,50.63
2022-09-22T07:16:59.080Z,50.63
2022-09-22T07:17:59.054Z,50.63
2022-09-22T07:18:59.041Z,50.63
2022-09-22T07:19:59.021Z,56.25
2022-09-22T07:20:59.005Z,56.25
2022-09-22T07:21:58.983Z,61.88
2022-09-22T07:22:58.965Z,61.88
2022-09-22T07:23:58.952Z,67.50
2022-09-22T07:24:58.933Z,67.50
2022-09-22T07:25:58.912Z,67.50
2022-09-22T07:26:58.897Z,73.13
2022-09-22T07:27:58.877Z,73.13
2022-09-22T07:28:58.863Z,78.75
2022-09-22T07:29:58.850Z,84.38
2022-09-22T07:30:58.826Z,95.63
2022-09-22T07:31:58.839Z,101.25
2022-09-22T07:32:58.792Z,106.88
2022-09-22T07:33:58.772Z,118.13
2022-09-22T07:34:58.757Z,123.75
2022-09-22T07:35:58.738Z,129.38
2022-09-22T07:36:58.726Z,129.38
2022-09-22T07:37:58.703Z,135.00
2022-09-22T07:38:58.688Z,135.00
2022-09-22T07:39:58.673Z,140.63
2022-09-22T07:40:58.656Z,140.63
2022-09-22T07:41:58.636Z,146.25
2022-09-22T07:42:58.623Z,151.88
2022-09-22T07:43:58.605Z,151.88
2022-09-22T07:44:58.593Z,157.50
2022-09-22T07:45:58.572Z,157.50
2022-09-22T07:46:58.613Z,163.13
2022-09-22T07:47:58.551Z,168.75
2022-09-22T07:48:58.524Z,168.75
2022-09-22T07:49:58.505Z,174.38
2022-09-22T07:50:58.487Z,180.00
2022-09-22T07:51:58.477Z,185.63
2022-09-22T07:52:58.460Z,191.25
2022-09-22T07:53:58.440Z,196.88
2022-09-22T07:54:58.426Z,196.88
2022-09-22T07:55:58.411Z,196.88
2022-09-22T07:56:59.052Z,202.50
2022-09-22T07:57:58.376Z,208.13
2022-09-22T07:58:58.365Z,213.75
2022-09-22T07:59:58.347Z,219.38
2022-09-22T08:00:58.364Z,225.00
2022-09-22T08:01:58.368Z,236.25
2022-09-22T08:02:58.309Z,241.88
2022-09-22T08:03:58.290Z,247.50
2022-09-22T08:04:58.284Z,253.13
2022-09-22T08:06:00.378Z,258.75
2022-09-22T08:06:58.246Z,264.38
2022-09-22T08:07:58.232Z,270.00
2022-09-22T08:08:58.241Z,270.00
2022-09-22T08:09:58.198Z,275.63
2022-09-22T08:10:58.185Z,281.25
2022-09-22T08:11:58.170Z,292.50
2022-09-22T08:12:58.223Z,292.50
2022-09-22T08:13:58.140Z,298.13
2022-09-22T08:14:58.128Z,303.75
2022-09-22T08:15:58.143Z,309.38
2022-09-22T08:16:58.101Z,315.00
2022-09-22T08:17:58.211Z,320.63
2022-09-22T08:18:58.074Z,320.63
2022-09-22T08:19:58.060Z,326.25
2022-09-22T08:20:58.047Z,331.88
2022-09-22T08:21:58.029Z,331.88
2022-09-22T08:22:58.021Z,337.50
2022-09-22T08:23:58.007Z,337.50
2022-09-22T08:24:57.994Z,343.13
2022-09-22T08:25:57.977Z,348.75
2022-09-22T08:26:57.972Z,348.75
2022-09-22T08:27:57.967Z,348.75
2022-09-22T08:28:57.943Z,354.38
2022-09-22T08:29:57.926Z,354.38
2022-09-22T08:30:57.995Z,360.00
2022-09-22T08:31:57.922Z,360.00
2022-09-22T08:32:57.890Z,360.00
2022-09-22T08:33:57.909Z,365.63
2022-09-22T08:34:57.879Z,365.63
2022-09-22T08:35:57.851Z,365.63
2022-09-22T08:36:57.839Z,365.63
2022-09-22T08:37:57.828Z,371.25
2022-09-22T08:38:58.007Z,371.25
2022-09-22T08:39:57.800Z,371.25
2022-09-22T08:40:57.790Z,371.25
2022-09-22T08:41:57.778Z,371.25
2022-09-22T08:42:57.774Z,371.25
2022-09-22T08:43:57.754Z,371.25
2022-09-22T08:44:57.745Z,371.25
2022-09-22T08:45:57.732Z,371.25
2022-09-22T08:46:57.786Z,371.25
2022-09-22T08:47:57.712Z,371.25
2022-09-22T08:48:57.699Z,371.25
2022-09-22T08:49:57.686Z,371.25
2022-09-22T08:50:57.676Z,371.25
2022-09-22T08:51:57.666Z,371.25
2022-09-22T08:52:57.657Z,371.25
2022-09-22T08:54:03.059Z,371.25
2022-09-22T08:54:57.634Z,371.25
2022-09-22T08:55:57.625Z,371.25
2022-09-22T08:56:57.618Z,371.25
2022-09-22T08:57:57.604Z,371.25
2022-09-22T08:58:57.594Z,371.25
2022-09-22T08:59:57.582Z,371.25
2022-09-22T09:00:57.582Z,371.25
2022-09-22T09:01:57.591Z,371.25
2022-09-22T09:02:57.625Z,371.25
2022-09-22T09:03:57.602Z,371.25
2022-09-22T09:04:57.540Z,371.25
2022-09-22T09:05:57.530Z,371.25
2022-09-22T09:06:57.518Z,371.25
2022-09-22T09:07:57.557Z,371.25
2022-09-22T09:09:01.301Z,371.25
2022-09-22T09:09:57.497Z,371.25
2022-09-22T09:10:57.489Z,371.25
2022-09-22T09:11:57.472Z,371.25
2022-09-22T09:12:57.501Z,371.25
2022-09-22T09:13:57.492Z,371.25
2022-09-22T09:14:57.449Z,371.25
2022-09-22T09:15:57.461Z,371.25
2022-09-22T09:16:57.434Z,371.25
2022-09-22T09:17:57.425Z,371.25
2022-09-22T09:18:57.415Z,371.25
2022-09-22T09:19:57.409Z,371.25
2022-09-22T09:20:57.399Z,371.25
2022-09-22T09:21:57.389Z,376.88
2022-09-22T09:22:57.383Z,371.25
2022-09-22T09:25:57.364Z,371.25
2022-09-22T09:26:57.357Z,371.25
2022-09-22T09:27:57.383Z,371.25
2022-09-22T09:29:01.505Z,371.25
2022-09-22T09:29:57.328Z,376.88
2022-09-22T09:30:57.335Z,371.25
2022-09-22T09:31:57.310Z,376.88
2022-09-22T09:32:57.304Z,376.88
2022-09-22T09:33:57.293Z,376.88
2022-09-22T09:34:57.315Z,376.88
2022-09-22T09:35:57.280Z,376.88
2022-09-22T09:36:57.275Z,376.88
2022-09-22T09:37:57.269Z,376.88
2022-09-22T09:38:57.293Z,376.88
2022-09-22T09:39:57.246Z,376.88
2022-09-22T09:40:57.241Z,376.88
2022-09-22T09:41:57.233Z,376.88
2022-09-22T09:42:57.225Z,382.50
2022-09-22T09:43:57.222Z,382.50
2022-09-22T09:44:57.210Z,382.50
2022-09-22T09:45:57.203Z,382.50
2022-09-22T09:46:57.197Z,382.50
2022-09-22T09:47:59.561Z,388.13
2022-09-22T09:48:57.183Z,382.50
2022-09-22T09:49:57.171Z,382.50
2022-09-22T09:50:57.168Z,382.50
2022-09-22T09:51:57.159Z,388.13
2022-09-22T09:52:57.154Z,388.13
2022-09-22T09:53:57.210Z,388.13
2022-09-22T09:54:57.140Z,388.13
2022-09-22T09:55:57.128Z,388.13
2022-09-22T09:56:57.125Z,388.13
2022-09-22T09:57:57.115Z,388.13
2022-09-22T09:58:57.164Z,393.75
2022-09-22T09:59:57.102Z,393.75
2022-09-22T10:00:57.098Z,393.75
2022-09-22T10:01:57.118Z,393.75
2022-09-22T10:02:57.094Z,393.75
2022-09-22T10:03:57.104Z,399.38
2022-09-22T10:04:57.071Z,399.38
2022-09-22T10:05:57.062Z,399.38
2022-09-22T10:07:01.581Z,399.38
2022-09-22T10:07:57.052Z,399.38
2022-09-22T10:08:57.078Z,405.00
2022-09-22T10:09:57.043Z,399.38
2022-09-22T10:10:57.030Z,405.00
2022-09-22T10:11:57.026Z,405.00
2022-09-22T10:12:57.018Z,405.00
2022-09-22T10:13:57.009Z,410.63
2022-09-22T10:14:57.005Z,410.63
2022-09-22T10:15:57.032Z,410.63
2022-09-22T10:16:56.993Z,410.63
2022-09-22T10:17:56.989Z,416.25
2022-09-22T10:18:56.982Z,416.25
2022-09-22T10:19:56.971Z,416.25
2022-09-22T10:20:56.969Z,421.88
2022-09-22T10:21:56.959Z,421.88
2022-09-22T10:22:56.952Z,421.88
2022-09-22T10:23:56.951Z,427.50
2022-09-22T10:24:56.952Z,427.50
2022-09-22T10:25:56.935Z,427.50
2022-09-22T10:26:56.929Z,433.13
2022-09-22T10:27:56.932Z,433.13
2022-09-22T10:28:56.917Z,433.13
2022-09-22T10:29:56.912Z,438.75
2022-09-22T10:30:56.958Z,438.75
2022-09-22T10:31:56.896Z,438.75
2022-09-22T10:32:56.891Z,438.75
2022-09-22T10:33:56.890Z,444.38
2022-09-22T10:34:56.880Z,444.38
2022-09-22T10:35:56.877Z,444.38
2022-09-22T10:36:56.867Z,444.38
2022-09-22T10:37:56.860Z,450.00
2022-09-22T10:38:59.644Z,450.00
2022-09-22T10:39:56.853Z,450.00
2022-09-22T10:40:56.841Z,450.00
2022-09-22T10:41:56.842Z,455.63
2022-09-22T10:42:56.832Z,455.63
2022-09-22T10:43:58.234Z,461.25
2022-09-22T10:44:56.819Z,461.25
2022-09-22T10:45:56.882Z,466.88
2022-09-22T10:46:56.808Z,466.88
2022-09-22T10:47:56.803Z,466.88
2022-09-22T10:48:57.036Z,472.50
2022-09-22T10:49:56.797Z,472.50
2022-09-22T10:50:56.795Z,472.50
2022-09-22T10:51:56.782Z,478.13
2022-09-22T10:52:56.772Z,478.13
2022-09-22T10:53:56.774Z,489.38
2022-09-22T10:54:56.774Z,483.75
2022-09-22T10:55:56.756Z,489.38
2022-09-22T10:56:56.749Z,495.00
2022-09-22T10:57:56.752Z,495.00
2022-09-22T10:58:56.745Z,500.63
2022-09-22T10:59:56.739Z,500.63
2022-09-22T11:00:56.727Z,500.63
2022-09-22T11:01:56.795Z,506.25
2022-09-22T11:02:56.715Z,506.25
2022-09-22T11:03:56.823Z,511.88
2022-09-22T11:04:56.772Z,517.50
2022-09-22T11:05:56.699Z,517.50
2022-09-22T11:06:56.694Z,523.13
2022-09-22T11:07:56.688Z,523.13
2022-09-22T11:08:56.679Z,523.13
2022-09-22T11:10:04.374Z,528.75
2022-09-22T11:12:02.267Z,534.38
2022-09-22T11:13:02.134Z,540.00
2022-09-22T11:15:07.624Z,540.00
2022-09-22T11:16:07.691Z,545.63
2022-09-22T11:18:13.091Z,551.25
2022-09-22T11:19:13.065Z,551.25
2022-09-22T11:21:07.456Z,556.88
2022-09-22T11:22:07.450Z,562.50
2022-09-22T11:23:07.444Z,568.13
2022-09-22T11:24:07.442Z,568.13
2022-09-22T11:25:07.431Z,573.75
2022-09-22T11:26:07.458Z,573.75
2022-09-22T11:27:07.425Z,579.38
2022-09-22T11:28:07.422Z,585.00
2022-09-22T11:29:07.548Z,585.00
2022-09-22T11:30:10.989Z,590.63
2022-09-22T11:31:07.464Z,596.25
2022-09-22T11:32:07.401Z,596.25
2022-09-22T11:33:07.396Z,601.88
2022-09-22T11:34:07.392Z,607.50
2022-09-22T11:35:07.389Z,613.13
2022-09-22T11:36:07.384Z,613.13
2022-09-22T11:37:07.377Z,618.75
2022-09-22T11:38:07.376Z,624.38
2022-09-22T11:39:07.372Z,624.38
2022-09-22T11:40:07.395Z,630.00
2022-09-22T11:41:07.360Z,630.00
2022-09-22T11:42:07.355Z,635.63
2022-09-22T11:43:07.350Z,641.25
2022-09-22T11:44:07.430Z,641.25
2022-09-22T11:45:07.340Z,646.88
2022-09-22T11:46:07.372Z,646.88
2022-09-22T11:47:07.339Z,652.50
2022-09-22T11:48:07.331Z,652.50
2022-09-22T11:49:07.324Z,658.13
2022-09-22T11:50:07.320Z,663.75
2022-09-22T11:51:07.318Z,669.38
2022-09-22T11:52:07.313Z,669.38
2022-09-22T11:53:07.307Z,675.00
2022-09-22T11:54:07.305Z,680.63
2022-09-22T11:55:07.302Z,686.25
2022-09-22T11:56:07.295Z,686.25
2022-09-22T11:57:07.290Z,691.88
2022-09-22T11:58:07.288Z,697.50
2022-09-22T11:59:07.284Z,703.13
2022-09-22T12:00:07.282Z,703.13
2022-09-22T12:01:12.374Z,708.75
2022-09-22T12:02:07.365Z,714.38
2022-09-22T12:03:07.412Z,714.38
2022-09-22T12:04:07.264Z,720.00
2022-09-22T12:05:07.259Z,725.63
2022-09-22T12:06:07.257Z,725.63
2022-09-22T12:07:07.251Z,736.88
2022-09-22T12:08:07.248Z,742.50
2022-09-22T12:09:07.244Z,742.50
2022-09-22T12:10:07.273Z,753.75
2022-09-22T12:11:07.235Z,770.63
2022-09-22T12:12:07.232Z,776.25
2022-09-22T12:13:07.230Z,770.63
2022-09-22T12:14:07.223Z,781.88
2022-09-22T12:15:07.221Z,793.13
2022-09-22T12:16:07.262Z,810.00
2022-09-22T12:17:07.218Z,804.38
2022-09-22T12:18:07.208Z,793.13
2022-09-22T12:19:07.394Z,793.13
2022-09-22T12:20:07.264Z,787.50
2022-09-22T12:21:07.196Z,787.50
2022-09-22T12:22:07.196Z,787.50
2022-09-22T12:23:07.191Z,793.13
2022-09-22T12:24:07.252Z,793.13
2022-09-22T12:25:07.182Z,804.38
2022-09-22T12:26:07.177Z,798.75
2022-09-22T12:27:07.174Z,798.75
2022-09-22T12:28:07.172Z,798.75
2022-09-22T12:29:07.169Z,810.00
2022-09-22T12:30:12.863Z,821.25
2022-09-22T12:31:07.396Z,843.75
2022-09-22T12:32:07.158Z,495.00
2022-09-22T12:33:07.164Z,793.13
2022-09-22T12:34:07.343Z,146.25
2022-09-22T12:35:07.172Z,832.50
2022-09-22T12:36:07.145Z,821.25
2022-09-22T12:37:07.139Z,826.88
2022-09-22T12:38:07.146Z,832.50
2022-09-22T12:39:07.129Z,832.50
2022-09-22T12:40:07.259Z,832.50
2022-09-22T12:41:07.124Z,832.50
2022-09-22T12:42:07.126Z,855.00
2022-09-22T12:43:07.124Z,135.00
2022-09-22T12:44:07.114Z,382.50
2022-09-22T12:45:07.108Z,855.00
2022-09-22T12:46:07.169Z,613.13
2022-09-22T12:47:07.147Z,438.75
2022-09-22T12:48:09.764Z,871.88
2022-09-22T12:49:07.140Z,849.38
2022-09-22T12:50:07.099Z,860.63
2022-09-22T12:51:07.083Z,866.25
2022-09-22T12:52:07.077Z,866.25
2022-09-22T12:53:07.077Z,258.75
2022-09-22T12:54:07.069Z,838.13
2022-09-22T12:55:07.066Z,838.13
2022-09-22T12:56:07.061Z,123.75
2022-09-22T12:58:07.056Z,135.00
2022-09-22T12:59:07.248Z,112.50
2022-09-22T13:00:07.045Z,191.25
2022-09-22T13:01:07.079Z,613.13
2022-09-22T13:02:07.121Z,883.13
2022-09-22T13:03:07.027Z,860.63
2022-09-22T13:04:07.020Z,877.50
2022-09-22T13:05:07.022Z,309.38
2022-09-22T13:06:07.009Z,900.00